Time;durP1;ratioP1;P1;durP2;ratioP2;P2;SDS_P1;SDS_P2;PMS_P1;PMS_P2;Temp;Humidity;BMP_temperature;BMP_pressure;BME280_temperature;BME280_humidity;BME280_pressure;Samples;Min_cycle;Max_cycle;Signal;HPM_P1;HPM_P2
2023/09/23 00:01:41;;;;;;;2.92;1.90;;;12.50;99.90;;;;;;5046757;28;20045;-39
2023/09/23 00:04:09;;;;;;;5.00;2.10;;;12.50;99.90;;;;;;5035490;28;20072;-38
2023/09/23 00:06:37;;;;;;;3.70;1.98;;;12.50;99.90;;;;;;5044386;28;20552;-38
2023/09/23 00:09:07;;;;;;;3.65;2.08;;;12.40;99.90;;;;;;5046586;28;20075;-40
2023/09/23 00:11:37;;;;;;;3.10;1.92;;;12.40;99.90;;;;;;5045412;28;20041;-40
2023/09/23 00:14:05;;;;;;;4.05;1.98;;;12.40;99.90;;;;;;5048380;28;20437;-38
2023/09/23 00:16:33;;;;;;;2.95;1.88;;;12.40;99.90;;;;;;5047001;28;20037;-40
2023/09/23 00:19:02;;;;;;;3.92;1.90;;;12.40;99.90;;;;;;5053800;28;20053;-40
2023/09/23 00:21:29;;;;;;;3.15;1.85;;;12.40;99.90;;;;;;5055797;28;20109;-38
2023/09/23 00:23:57;;;;;;;2.78;1.85;;;12.30;99.90;;;;;;5051177;28;20600;-39
2023/09/23 00:26:26;;;;;;;3.35;1.85;;;12.30;99.90;;;;;;5047227;28;20040;-38
2023/09/23 00:28:54;;;;;;;3.38;1.90;;;12.30;99.90;;;;;;5043255;28;20060;-39
2023/09/23 00:31:24;;;;;;;4.25;1.95;;;12.30;99.90;;;;;;5050992;28;20339;-40
2023/09/23 00:33:52;;;;;;;8.85;2.10;;;12.30;99.90;;;;;;5052865;28;20049;-39
2023/09/23 00:36:22;;;;;;;4.65;2.30;;;12.30;99.90;;;;;;5050970;28;20053;-40
2023/09/23 00:38:50;;;;;;;3.47;1.90;;;12.30;99.90;;;;;;5055001;28;20137;-40
2023/09/23 00:41:17;;;;;;;3.67;1.80;;;12.30;99.90;;;;;;5052756;28;20061;-40
2023/09/23 00:43:47;;;;;;;3.78;1.70;;;12.30;99.90;;;;;;5048949;28;20425;-39
2023/09/23 00:46:16;;;;;;;2.80;1.90;;;12.30;99.90;;;;;;5046426;28;20052;-38
2023/09/23 00:48:44;;;;;;;4.78;1.80;;;12.30;99.90;;;;;;5045783;28;20045;-37
2023/09/23 00:51:12;;;;;;;2.72;1.95;;;12.20;99.90;;;;;;5033729;28;20048;-38
2023/09/23 00:53:40;;;;;;;3.75;2.20;;;12.20;99.90;;;;;;5048154;28;20132;-38
2023/09/23 00:56:09;;;;;;;3.13;1.70;;;12.20;99.90;;;;;;5039998;28;20531;-39
2023/09/23 00:58:37;;;;;;;3.80;1.77;;;12.10;99.90;;;;;;5046292;28;20148;-39
2023/09/23 01:01:08;;;;;;;4.63;2.00;;;12.10;99.90;;;;;;5046536;28;20064;-42
2023/09/23 01:03:39;;;;;;;2.63;1.70;;;12.00;99.90;;;;;;5043563;28;20115;-41
2023/09/23 01:06:21;;;;;;;6.38;1.85;;;12.00;99.90;;;;;;5041908;28;20045;-41
2023/09/23 01:08:51;;;;;;;3.72;1.80;;;11.90;99.90;;;;;;5055843;28;20611;-40
2023/09/23 01:11:18;;;;;;;2.90;1.70;;;11.90;99.90;;;;;;5051858;28;20083;-41
2023/09/23 01:13:50;;;;;;;3.38;1.70;;;11.90;99.90;;;;;;5051486;28;20398;-41
2023/09/23 01:16:18;;;;;;;;;;;11.90;99.90;;;;;;5049286;28;20049;-41
2023/09/23 01:18:46;;;;;;;3.55;1.70;;;12.00;99.90;;;;;;5048969;28;19931;-41
2023/09/23 01:21:13;;;;;;;2.78;1.80;;;12.00;99.90;;;;;;5054110;28;20524;-38
2023/09/23 01:23:44;;;;;;;5.00;1.50;;;11.90;99.90;;;;;;5056759;28;20077;-41
2023/09/23 01:26:11;;;;;;;3.22;1.80;;;12.00;99.90;;;;;;5056037;28;20111;-38
2023/09/23 01:28:39;;;;;;;3.25;1.70;;;11.90;99.90;;;;;;5062856;28;20051;-40
2023/09/23 01:31:07;;;;;;;4.20;2.00;;;11.90;99.90;;;;;;5053945;28;20040;-39
2023/09/23 01:33:35;;;;;;;4.68;2.05;;;11.90;99.90;;;;;;5039865;28;20049;-39
2023/09/23 01:36:03;;;;;;;2.75;1.60;;;11.90;99.90;;;;;;5040740;28;20059;-38
2023/09/23 01:38:31;;;;;;;4.53;1.80;;;11.90;99.90;;;;;;5031538;28;20057;-39
2023/09/23 01:41:03;;;;;;;4.20;1.80;;;11.80;99.90;;;;;;5042255;28;20047;-41
2023/09/23 01:43:31;;;;;;;2.97;1.98;;;11.80;99.90;;;;;;5047978;28;20082;-41
2023/09/23 01:46:03;;;;;;;2.97;1.55;;;11.80;99.90;;;;;;5048137;28;20102;-40
2023/09/23 01:48:32;;;;;;;5.03;1.80;;;11.70;99.90;;;;;;5049069;28;20056;-36
2023/09/23 01:50:59;;;;;;;3.67;1.80;;;11.80;99.90;;;;;;5051293;28;20053;-39
2023/09/23 01:53:27;;;;;;;6.15;2.08;;;11.80;99.90;;;;;;5050108;28;20052;-41
2023/09/23 01:55:55;;;;;;;4.78;1.98;;;11.80;99.90;;;;;;5047668;28;20041;-38
2023/09/23 01:58:23;;;;;;;2.78;1.75;;;11.80;99.90;;;;;;5049870;28;20127;-39
2023/09/23 02:00:52;;;;;;;6.70;1.90;;;11.80;99.90;;;;;;5051853;28;20040;-39
2023/09/23 02:03:20;;;;;;;3.30;1.67;;;11.80;99.90;;;;;;5055564;28;20075;-38
2023/09/23 02:05:47;;;;;;;3.53;1.70;;;11.80;99.90;;;;;;5048423;28;20095;-40
2023/09/23 02:08:15;;;;;;;4.07;1.90;;;11.80;99.90;;;;;;5048631;28;20114;-40
2023/09/23 02:10:46;;;;;;;4.25;1.90;;;11.80;99.90;;;;;;5044750;28;20413;-39
2023/09/23 02:13:13;;;;;;;4.68;1.70;;;11.90;99.90;;;;;;5041975;28;20243;-39
2023/09/23 02:15:40;;;;;;;3.58;1.70;;;11.90;99.90;;;;;;5044836;28;20535;-40
2023/09/23 02:18:08;;;;;;;3.65;1.80;;;11.90;99.90;;;;;;5048843;28;20546;-40
2023/09/23 02:20:35;;;;;;;3.78;1.88;;;11.90;99.90;;;;;;5048272;28;20524;-37
2023/09/23 02:23:03;;;;;;;5.43;2.05;;;12.00;99.90;;;;;;5046181;28;20041;-39
2023/09/23 02:25:30;;;;;;;3.17;2.00;;;12.00;99.90;;;;;;5057521;28;20068;-38
2023/09/23 02:27:58;;;;;;;3.70;2.20;;;11.90;99.90;;;;;;5057616;28;20048;-38
2023/09/23 02:30:25;;;;;;;3.55;1.90;;;11.90;99.90;;;;;;5047819;28;20045;-39
2023/09/23 02:32:53;;;;;;;3.08;1.90;;;11.90;99.90;;;;;;5048778;28;20454;-40
2023/09/23 02:35:21;;;;;;;3.58;1.90;;;11.80;99.90;;;;;;5047396;28;20052;-41
2023/09/23 02:37:49;;;;;;;4.10;1.90;;;11.80;99.90;;;;;;5043150;28;20109;-39
2023/09/23 02:40:17;;;;;;;3.30;1.77;;;11.80;99.90;;;;;;5045643;28;20037;-38
2023/09/23 02:42:47;;;;;;;4.70;2.00;;;11.80;99.90;;;;;;5045406;28;20053;-40
2023/09/23 02:45:16;;;;;;;3.50;1.83;;;11.80;99.90;;;;;;5035298;28;20056;-39
2023/09/23 02:47:46;;;;;;;4.65;1.77;;;11.90;99.90;;;;;;5047563;28;20033;-39
2023/09/23 02:50:14;;;;;;;3.42;2.10;;;11.90;99.90;;;;;;5039059;28;20056;-37
2023/09/23 02:52:44;;;;;;;3.28;1.80;;;11.90;99.90;;;;;;5045585;28;20037;-39
2023/09/23 02:55:14;;;;;;;4.50;2.00;;;12.00;99.90;;;;;;5037374;28;20120;-39
2023/09/23 02:57:46;;;;;;;2.85;1.92;;;12.00;99.90;;;;;;5048318;28;20410;-39
2023/09/23 03:00:19;;;;;;;5.13;2.20;;;12.00;99.90;;;;;;5041435;28;20159;-38
2023/09/23 03:02:58;;;;;;;4.53;2.00;;;12.00;99.90;;;;;;5046056;28;20045;-38
2023/09/23 03:05:30;;;;;;;2.40;1.88;;;11.90;99.90;;;;;;5044630;28;20098;-39
2023/09/23 03:07:59;;;;;;;2.60;1.90;;;11.90;99.90;;;;;;5056310;28;20071;-39
2023/09/23 03:10:39;;;;;;;3.63;2.15;;;11.80;99.90;;;;;;5045850;28;20118;-40
2023/09/23 03:13:11;;;;;;;4.72;2.15;;;11.80;99.90;;;;;;5049367;28;20420;-40
2023/09/23 03:15:46;;;;;;;2.80;2.10;;;11.70;99.90;;;;;;5056560;28;20516;-38
2023/09/23 03:18:27;;;;;;;4.35;2.10;;;11.70;99.90;;;;;;5052769;28;20088;-39
2023/09/23 03:20:56;;;;;;;2.45;1.80;;;11.70;99.90;;;;;;5037728;28;20045;-38
2023/09/23 03:23:23;;;;;;;3.03;2.13;;;11.70;99.90;;;;;;5045203;28;20053;-40
2023/09/23 03:25:51;;;;;;;3.83;2.38;;;11.70;99.90;;;;;;5043573;28;20088;-38
2023/09/23 03:28:18;;;;;;;3.33;1.80;;;11.70;99.90;;;;;;5043051;28;20072;-39
2023/09/23 03:30:49;;;;;;;3.53;1.83;;;11.60;99.90;;;;;;5024101;28;20048;-39
2023/09/23 03:33:21;;;;;;;2.65;1.80;;;11.50;99.90;;;;;;5045029;28;20045;-38
2023/09/23 03:35:49;;;;;;;2.47;1.73;;;11.50;99.90;;;;;;5037844;28;20045;-41
2023/09/23 03:38:17;;;;;;;3.25;1.70;;;11.40;99.90;;;;;;5038062;28;20348;-36
2023/09/23 03:41:02;;;;;;;7.05;2.00;;;11.40;99.90;;;;;;5048866;28;20567;-40
2023/09/23 03:43:30;;;;;;;2.38;1.80;;;11.40;99.90;;;;;;5044372;28;20048;-39
2023/09/23 03:45:57;;;;;;;5.25;1.90;;;11.40;99.90;;;;;;5033200;28;20072;-41
2023/09/23 03:48:25;;;;;;;2.88;1.88;;;11.40;99.90;;;;;;5039962;28;20045;-41
2023/09/23 03:50:53;;;;;;;3.80;1.60;;;11.40;99.90;;;;;;5047214;28;20046;-41
2023/09/23 03:53:22;;;;;;;2.13;1.70;;;11.30;99.90;;;;;;5045441;28;20120;-39
2023/09/23 03:55:54;;;;;;;2.10;1.70;;;11.30;99.90;;;;;;5056774;28;20063;-40
2023/09/23 03:58:24;;;;;;;2.35;1.80;;;11.30;99.90;;;;;;5048880;28;20118;-40
2023/09/23 04:00:56;;;;;;;3.42;1.92;;;11.30;99.90;;;;;;5046403;28;20052;-41
2023/09/23 04:03:24;;;;;;;2.97;2.05;;;11.20;99.90;;;;;;5054824;28;20478;-43
2023/09/23 04:05:57;;;;;;;2.55;1.63;;;11.20;99.90;;;;;;5056004;28;20045;-40
2023/09/23 04:08:26;;;;;;;3.83;1.67;;;11.20;99.90;;;;;;5046727;28;20068;-40
2023/09/23 04:10:53;;;;;;;2.53;1.90;;;11.20;99.90;;;;;;5063809;28;20038;-40
2023/09/23 04:13:21;;;;;;;3.28;1.60;;;11.10;99.90;;;;;;5053101;28;20229;-38
2023/09/23 04:15:48;;;;;;;3.50;2.03;;;11.00;99.90;;;;;;5059868;28;20041;-38
2023/09/23 04:18:18;;;;;;;3.20;1.95;;;11.00;99.90;;;;;;5044357;28;20064;-39
2023/09/23 04:20:48;;;;;;;3.53;1.88;;;11.00;99.90;;;;;;5041542;28;20133;-37
2023/09/23 04:23:15;;;;;;;2.85;1.85;;;10.90;99.90;;;;;;5051013;28;20033;-38
2023/09/23 04:25:43;;;;;;;3.97;1.75;;;10.90;99.90;;;;;;5050202;28;20041;-41
2023/09/23 04:28:11;;;;;;;2.63;1.88;;;10.90;99.90;;;;;;5056824;28;20037;-38
2023/09/23 04:30:38;;;;;;;3.92;1.60;;;10.80;99.90;;;;;;5052675;28;20037;-41
2023/09/23 04:33:06;;;;;;;3.75;1.90;;;10.80;99.90;;;;;;5039247;28;20512;-40
2023/09/23 04:35:34;;;;;;;4.68;1.90;;;10.70;99.90;;;;;;5046163;28;20046;-37
2023/09/23 04:38:02;;;;;;;2.58;1.75;;;10.70;99.90;;;;;;5051329;28;20490;-37
2023/09/23 04:40:30;;;;;;;5.20;2.00;;;10.70;99.90;;;;;;5044824;28;20051;-36
2023/09/23 04:42:57;;;;;;;2.85;2.05;;;10.70;99.90;;;;;;5048071;28;20056;-40
2023/09/23 04:45:25;;;;;;;2.75;2.00;;;10.70;99.90;;;;;;5051109;28;20057;-40
2023/09/23 04:47:52;;;;;;;3.47;1.77;;;10.70;99.90;;;;;;5048824;28;20045;-41
2023/09/23 04:50:22;;;;;;;4.63;2.00;;;10.60;99.90;;;;;;5046826;28;20172;-40
2023/09/23 04:52:50;;;;;;;2.05;1.75;;;10.70;99.90;;;;;;5045887;28;20136;-41
2023/09/23 04:55:19;;;;;;;2.72;1.80;;;10.60;99.90;;;;;;5044180;28;20099;-39
2023/09/23 04:57:46;;;;;;;3.15;1.80;;;10.50;99.90;;;;;;5049360;28;20033;-38
2023/09/23 05:00:18;;;;;;;4.78;2.22;;;10.50;99.90;;;;;;5051897;28;20135;-37
2023/09/23 05:02:49;;;;;;;3.53;2.17;;;10.50;99.90;;;;;;5049360;28;20044;-41
2023/09/23 05:05:17;;;;;;;3.20;2.05;;;10.60;99.90;;;;;;5046869;28;20108;-39
2023/09/23 05:07:45;;;;;;;3.35;1.92;;;10.50;99.90;;;;;;5049729;28;20040;-39
2023/09/23 05:10:12;;;;;;;3.10;1.90;;;10.60;99.90;;;;;;5059575;28;20056;-40
2023/09/23 05:12:41;;;;;;;2.90;2.15;;;10.60;99.90;;;;;;5059244;28;20041;-40
2023/09/23 05:15:14;;;;;;;4.63;2.28;;;10.70;99.90;;;;;;5050256;28;20049;-39
2023/09/23 05:17:45;;;;;;;4.57;2.10;;;10.70;99.90;;;;;;5058018;28;20055;-38
2023/09/23 05:20:16;;;;;;;4.25;2.17;;;10.70;99.90;;;;;;5049897;28;20057;-37
2023/09/23 05:22:43;;;;;;;6.28;2.40;;;10.70;99.90;;;;;;5064324;28;20068;-40
2023/09/23 05:25:14;;;;;;;4.47;2.33;;;10.60;99.90;;;;;;5052792;28;20063;-39
2023/09/23 05:27:43;;;;;;;4.90;2.03;;;10.70;99.90;;;;;;5048875;28;20100;-39
2023/09/23 05:30:11;;;;;;;3.88;2.30;;;10.70;99.90;;;;;;5041958;28;20544;-40
2023/09/23 05:32:39;;;;;;;3.75;2.40;;;10.70;99.90;;;;;;5048849;28;20037;-38
2023/09/23 05:35:10;;;;;;;3.42;2.28;;;10.70;99.90;;;;;;5042616;28;20047;-42
2023/09/23 05:37:39;;;;;;;3.65;2.67;;;10.70;99.90;;;;;;5049278;28;20514;-38
2023/09/23 05:42:50;;;;;;;6.05;2.50;;;10.70;99.90;;;;;;5061926;28;20045;-41
2023/09/23 05:45:18;;;;;;;4.57;2.47;;;10.80;99.90;;;;;;5061448;28;20045;-39
2023/09/23 05:47:45;;;;;;;4.20;2.30;;;10.80;99.90;;;;;;5064712;28;20052;-40
2023/09/23 05:50:17;;;;;;;4.22;2.70;;;10.80;99.90;;;;;;5055434;28;20049;-38
2023/09/23 05:52:45;;;;;;;3.90;2.50;;;10.80;99.90;;;;;;5052829;28;20075;-41
2023/09/23 05:55:14;;;;;;;4.85;2.50;;;10.90;99.90;;;;;;5056892;28;20061;-36
2023/09/23 05:57:41;;;;;;;7.93;5.00;;;10.90;99.90;;;;;;5058101;28;20033;-40
2023/09/23 06:00:15;;;;;;;4.80;2.63;;;11.10;99.90;;;;;;5046738;28;20037;-41
2023/09/23 06:02:47;;;;;;;4.20;2.53;;;11.10;99.90;;;;;;5040225;28;20049;-39
2023/09/23 06:05:15;;;;;;;4.47;2.60;;;11.10;99.90;;;;;;5045458;28;20037;-36
2023/09/23 06:07:43;;;;;;;4.25;2.50;;;11.20;99.90;;;;;;5046244;28;20126;-38
2023/09/23 06:10:11;;;;;;;5.57;2.35;;;11.20;99.90;;;;;;5051339;28;20041;-39
2023/09/23 06:12:39;;;;;;;3.67;3.00;;;11.20;99.90;;;;;;5049950;28;20069;-37
2023/09/23 06:15:08;;;;;;;3.97;2.70;;;11.30;99.90;;;;;;5037893;28;20179;-39
2023/09/23 06:17:37;;;;;;;5.35;2.83;;;11.30;99.90;;;;;;5033343;28;20076;-39
2023/09/23 06:20:05;;;;;;;4.28;2.55;;;11.30;99.90;;;;;;5043397;28;20045;-40
2023/09/23 06:22:35;;;;;;;5.18;3.20;;;11.30;99.90;;;;;;5042872;28;20049;-39
2023/09/23 06:25:03;;;;;;;4.05;2.70;;;11.30;99.90;;;;;;5054813;28;20425;-40
2023/09/23 06:27:32;;;;;;;3.90;2.80;;;11.40;99.90;;;;;;5043813;28;20398;-38
2023/09/23 06:30:00;;;;;;;6.03;3.05;;;11.40;99.90;;;;;;5051134;28;20045;-40
2023/09/23 06:32:27;;;;;;;5.22;2.90;;;11.40;99.90;;;;;;5045010;28;20616;-40
2023/09/23 06:34:55;;;;;;;4.45;3.05;;;11.40;99.90;;;;;;5039509;28;20037;-40
2023/09/23 06:37:22;;;;;;;4.35;2.92;;;11.40;99.90;;;;;;5040349;28;20454;-38
2023/09/23 06:39:49;;;;;;;3.97;3.00;;;11.40;99.90;;;;;;5050140;28;20481;-41
2023/09/23 06:42:17;;;;;;;10.98;3.75;;;11.50;99.90;;;;;;5042329;28;20477;-38
2023/09/23 06:44:45;;;;;;;4.53;3.05;;;11.60;99.90;;;;;;5051411;28;20446;-40
2023/09/23 06:47:12;;;;;;;6.22;3.10;;;11.70;99.90;;;;;;5045255;28;20041;-42
2023/09/23 06:49:40;;;;;;;4.60;2.97;;;11.80;99.90;;;;;;5050334;28;20049;-39
2023/09/23 06:52:07;;;;;;;4.28;2.92;;;11.80;99.90;;;;;;5055585;28;20063;-42
2023/09/23 06:54:34;;;;;;;4.07;3.30;;;11.80;99.90;;;;;;5053810;28;20136;-41
2023/09/23 06:57:02;;;;;;;4.82;3.10;;;11.80;99.90;;;;;;5049112;28;20124;-40
2023/09/23 06:59:29;;;;;;;5.05;3.20;;;11.90;99.90;;;;;;5037059;28;20132;-39
2023/09/23 07:01:56;;;;;;;5.05;3.53;;;12.00;99.90;;;;;;5051627;28;20540;-41
2023/09/23 07:04:25;;;;;;;5.72;3.10;;;11.80;99.90;;;;;;5057137;28;20075;-41
2023/09/23 07:06:52;;;;;;;7.18;3.63;;;11.90;99.90;;;;;;5060447;28;20075;-39
2023/09/23 07:09:20;;;;;;;5.13;3.00;;;12.00;99.90;;;;;;5050045;28;20577;-42
2023/09/23 07:11:47;;;;;;;5.38;3.20;;;12.00;99.90;;;;;;5041353;28;20039;-42
2023/09/23 07:14:14;;;;;;;4.75;2.88;;;12.20;99.90;;;;;;5047945;28;20080;-40
2023/09/23 07:16:43;;;;;;;4.93;3.00;;;12.20;99.90;;;;;;5043643;28;20052;-39
2023/09/23 07:19:11;;;;;;;5.47;2.67;;;12.30;99.90;;;;;;5045940;28;20045;-42
2023/09/23 07:21:38;;;;;;;6.90;3.13;;;12.40;99.90;;;;;;5034616;28;20049;-40
2023/09/23 07:24:06;;;;;;;4.13;3.03;;;12.50;99.90;;;;;;5048929;28;20135;-41
2023/09/23 07:26:38;;;;;;;3.97;2.70;;;12.70;99.90;;;;;;5050519;28;20080;-41
2023/09/23 07:29:05;;;;;;;3.92;2.55;;;12.70;99.90;;;;;;5051512;28;20053;-40
2023/09/23 07:31:32;;;;;;;5.50;2.80;;;12.70;99.90;;;;;;5049217;28;20060;-41
2023/09/23 07:33:59;;;;;;;3.78;2.67;;;12.70;99.90;;;;;;5051379;28;20569;-40
2023/09/23 07:36:26;;;;;;;5.53;2.78;;;12.80;99.90;;;;;;5051238;28;20057;-40
2023/09/23 07:38:54;;;;;;;5.88;2.72;;;12.90;99.90;;;;;;5051379;28;20045;-41
2023/09/23 07:41:21;;;;;;;5.00;2.58;;;13.00;99.90;;;;;;5045891;28;20060;-40
2023/09/23 07:43:49;;;;;;;4.75;2.80;;;13.10;99.90;;;;;;5052816;28;20130;-41
2023/09/23 07:46:17;;;;;;;7.57;2.90;;;13.10;99.90;;;;;;5053325;28;20049;-42
2023/09/23 07:48:44;;;;;;;4.20;2.47;;;13.00;99.90;;;;;;5048591;28;20044;-39
2023/09/23 07:51:12;;;;;;;9.10;2.80;;;13.20;99.90;;;;;;5046836;28;20041;-40
2023/09/23 07:53:39;;;;;;;4.78;2.40;;;13.30;99.90;;;;;;5046343;28;20048;-39
2023/09/23 07:56:06;;;;;;;5.43;2.42;;;13.30;99.90;;;;;;5044803;28;20043;-42
2023/09/23 07:58:34;;;;;;;4.88;2.50;;;13.30;99.90;;;;;;5036169;28;20057;-39
2023/09/23 08:01:02;;;;;;;4.38;2.60;;;13.30;99.90;;;;;;5034237;28;20447;-38
2023/09/23 08:03:30;;;;;;;5.00;2.40;;;13.40;99.90;;;;;;5036652;28;20053;-41
2023/09/23 08:05:57;;;;;;;3.78;2.30;;;13.60;99.90;;;;;;5040926;28;20090;-40
2023/09/23 08:08:27;;;;;;;4.97;2.65;;;13.70;99.90;;;;;;5046940;28;20040;-42
2023/09/23 08:10:55;;;;;;;3.50;2.20;;;13.90;99.90;;;;;;5043124;28;20512;-39
2023/09/23 08:13:22;;;;;;;5.32;2.20;;;14.00;99.90;;;;;;5048051;28;20140;-40
2023/09/23 08:15:56;;;;;;;3.53;2.15;;;14.20;99.90;;;;;;5054274;28;20044;-41
2023/09/23 08:18:23;;;;;;;5.30;2.50;;;14.30;99.90;;;;;;5043633;28;20486;-40
2023/09/23 08:21:00;;;;;;;6.05;2.30;;;14.50;99.90;;;;;;5047956;28;20506;-41
2023/09/23 08:23:28;;;;;;;7.90;3.13;;;14.60;99.90;;;;;;5046327;28;20155;-39
2023/09/23 08:25:56;;;;;;;4.20;2.60;;;14.70;99.90;;;;;;5036983;28;20373;-39
2023/09/23 08:28:23;;;;;;;5.13;2.47;;;14.80;99.90;;;;;;5043150;28;20473;-39
2023/09/23 08:30:52;;;;;;;4.45;2.60;;;14.80;99.90;;;;;;5047617;28;20497;-41
2023/09/23 08:33:19;;;;;;;3.42;2.40;;;14.80;99.90;;;;;;5044533;28;20128;-40
2023/09/23 08:35:48;;;;;;;4.05;2.67;;;14.90;99.90;;;;;;5037598;28;20139;-40
2023/09/23 08:38:16;;;;;;;4.72;2.40;;;15.00;99.90;;;;;;5044190;28;20139;-39
2023/09/23 08:40:45;;;;;;;4.25;2.35;;;14.90;99.90;;;;;;5038328;28;20053;-40
2023/09/23 08:43:12;;;;;;;4.20;2.17;;;15.00;99.90;;;;;;5045824;28;20509;-39
2023/09/23 08:45:44;;;;;;;5.32;2.50;;;15.10;99.90;;;;;;5036992;28;20117;-40
2023/09/23 08:48:17;;;;;;;6.65;2.72;;;15.10;99.90;;;;;;5044605;28;20037;-38
2023/09/23 08:50:46;;;;;;;7.50;2.45;;;15.20;99.90;;;;;;5045182;28;21047;-40
2023/09/23 08:53:15;;;;;;;4.18;2.53;;;15.20;99.90;;;;;;5043335;28;20123;-40
2023/09/23 08:55:44;;;;;;;5.82;2.78;;;15.30;99.90;;;;;;5050277;28;20045;-43
2023/09/23 08:58:12;;;;;;;4.53;2.75;;;15.50;99.90;;;;;;5051903;28;20052;-42
2023/09/23 09:00:45;;;;;;;4.03;2.50;;;15.60;99.90;;;;;;5052807;28;20045;-41
2023/09/23 09:03:13;;;;;;;3.85;2.58;;;15.60;99.90;;;;;;5057351;28;20049;-39
2023/09/23 09:05:42;;;;;;;4.30;2.55;;;15.70;99.90;;;;;;5055932;28;20065;-40
2023/09/23 09:08:10;;;;;;;5.68;2.97;;;15.70;99.90;;;;;;5042392;28;20477;-39
2023/09/23 09:10:38;;;;;;;5.20;2.85;;;15.90;99.90;;;;;;5049310;28;20052;-40
2023/09/23 09:13:06;;;;;;;5.45;2.70;;;16.20;99.90;;;;;;5040227;28;20041;-40
2023/09/23 09:15:35;;;;;;;3.97;2.50;;;16.10;99.90;;;;;;5049899;28;20113;-39
2023/09/23 09:18:03;;;;;;;4.50;2.85;;;16.30;99.90;;;;;;5050850;28;20048;-40
2023/09/23 09:20:31;;;;;;;4.22;2.80;;;16.20;99.90;;;;;;5043218;28;20053;-37
2023/09/23 09:22:58;;;;;;;5.75;3.13;;;16.00;99.90;;;;;;5049636;28;20072;-41
2023/09/23 09:25:26;;;;;;;4.57;2.70;;;15.90;99.90;;;;;;5049979;28;20122;-41
2023/09/23 09:27:54;;;;;;;4.43;3.03;;;15.80;99.90;;;;;;5046034;28;20049;-42
2023/09/23 09:30:21;;;;;;;4.80;2.95;;;15.90;99.90;;;;;;5050486;28;20433;-40
2023/09/23 09:32:49;;;;;;;6.20;3.00;;;15.90;99.90;;;;;;5045795;28;20045;-43
2023/09/23 09:35:17;;;;;;;5.20;2.80;;;16.30;99.90;;;;;;5049586;28;20068;-41
2023/09/23 09:37:48;;;;;;;5.00;2.85;;;16.60;99.90;;;;;;5050334;28;20048;-40
2023/09/23 09:40:28;;;;;;;5.07;3.00;;;16.70;99.90;;;;;;5045121;28;20449;-41
2023/09/23 09:42:59;;;;;;;4.38;3.00;;;17.00;99.90;;;;;;5042867;28;20049;-42
2023/09/23 09:45:34;;;;;;;4.57;3.20;;;16.90;99.90;;;;;;5047313;28;20041;-42
2023/09/23 09:48:03;;;;;;;5.22;3.13;;;17.00;99.90;;;;;;5040471;28;20045;-42
2023/09/23 09:50:34;;;;;;;3.97;2.83;;;17.00;99.90;;;;;;5044132;28;20478;-40
2023/09/23 09:53:05;;;;;;;4.40;3.00;;;16.90;99.90;;;;;;5040381;28;20220;-39
2023/09/23 09:55:33;;;;;;;5.60;2.92;;;16.70;99.90;;;;;;5040777;28;20060;-39
2023/09/23 09:58:01;;;;;;;4.70;2.95;;;16.60;99.90;;;;;;5042428;28;20117;-39
2023/09/23 10:00:33;;;;;;;5.75;2.70;;;16.40;99.90;;;;;;5047694;28;20049;-39
2023/09/23 10:03:05;;;;;;;4.68;3.22;;;16.60;99.90;;;;;;5044499;28;20072;-38
2023/09/23 10:05:46;;;;;;;6.50;2.92;;;16.80;99.90;;;;;;5045714;28;20509;-42
2023/09/23 10:08:24;;;;;;;6.18;2.95;;;17.40;99.90;;;;;;5044880;28;20060;-40
2023/09/23 10:11:04;;;;;;;4.70;3.20;;;17.70;99.90;;;;;;5040921;28;20139;-40
2023/09/23 10:13:34;;;;;;;3.75;3.05;;;18.00;99.90;;;;;;5049926;28;20485;-40
2023/09/23 10:16:13;;;;;;;7.82;3.53;;;17.90;99.90;;;;;;5049428;28;20048;-39
2023/09/23 10:18:41;;;;;;;7.05;3.47;;;17.60;99.90;;;;;;5047702;28;20076;-39
2023/09/23 10:21:24;;;;;;;5.35;3.13;;;17.00;99.90;;;;;;5056897;28;20111;-41
2023/09/23 10:23:55;;;;;;;3.67;3.20;;;17.00;99.90;;;;;;5044911;28;20053;-40
2023/09/23 10:26:23;;;;;;;6.43;3.50;;;17.10;99.90;;;;;;5043631;28;20133;-40
2023/09/23 10:29:03;;;;;;;9.48;3.55;;;16.90;99.90;;;;;;5040471;28;20393;-41
2023/09/23 10:31:32;;;;;;;8.27;3.60;;;17.10;99.90;;;;;;5047204;28;20045;-41
2023/09/23 10:34:08;;;;;;;5.47;3.45;;;17.20;99.90;;;;;;5048336;28;20052;-42
2023/09/23 10:36:36;;;;;;;5.47;3.20;;;17.40;99.90;;;;;;5048219;28;20132;-41
2023/09/23 10:39:07;;;;;;;4.18;2.97;;;18.10;99.90;;;;;;5037672;28;20033;-39
2023/09/23 10:41:35;;;;;;;7.20;3.50;;;18.50;99.90;;;;;;5050658;28;20040;-41
2023/09/23 10:44:03;;;;;;;3.67;3.20;;;19.00;99.90;;;;;;5045544;28;20032;-43
2023/09/23 10:46:31;;;;;;;5.13;3.33;;;19.20;99.90;;;;;;5052069;28;20048;-42
2023/09/23 10:48:59;;;;;;;4.78;3.40;;;19.10;99.90;;;;;;5043770;28;20136;-44
2023/09/23 10:51:28;;;;;;;6.22;3.50;;;18.90;99.90;;;;;;5042386;28;20539;-44
2023/09/23 10:53:56;;;;;;;5.95;3.30;;;18.60;99.90;;;;;;5040158;28;20063;-45
2023/09/23 10:56:25;;;;;;;5.10;3.38;;;18.80;99.90;;;;;;5040817;28;20064;-41
2023/09/23 10:58:52;;;;;;;5.80;3.55;;;18.80;99.90;;;;;;5049548;28;20063;-43
2023/09/23 11:01:23;;;;;;;6.03;3.33;;;19.00;99.90;;;;;;5047563;28;20052;-41
2023/09/23 11:03:52;;;;;;;5.50;3.37;;;18.90;99.90;;;;;;5049645;28;20080;-41
2023/09/23 11:06:19;;;;;;;4.38;3.00;;;19.00;99.90;;;;;;5054373;28;20307;-43
2023/09/23 11:08:48;;;;;;;4.05;2.97;;;19.00;99.90;;;;;;5050019;28;20045;-40
2023/09/23 11:11:17;;;;;;;4.72;3.22;;;19.30;99.90;;;;;;5050562;28;20379;-43
2023/09/23 11:13:44;;;;;;;5.38;3.28;;;19.20;99.90;;;;;;5049195;28;20045;-40
2023/09/23 11:16:11;;;;;;;4.60;3.50;;;19.00;99.90;;;;;;5041851;28;20131;-41
2023/09/23 11:18:39;;;;;;;5.05;3.60;;;18.70;99.90;;;;;;5049207;28;20055;-42
2023/09/23 11:21:06;;;;;;;5.93;3.53;;;18.30;99.90;;;;;;5049845;28;20121;-41
2023/09/23 11:23:34;;;;;;;4.47;3.70;;;18.10;99.90;;;;;;5047446;28;20049;-38
2023/09/23 11:26:02;;;;;;;4.07;3.42;;;17.80;99.90;;;;;;5042404;28;20037;-38
2023/09/23 11:28:30;;;;;;;4.88;3.80;;;17.70;99.90;;;;;;5048303;28;20128;-41
2023/09/23 11:30:57;;;;;;;5.65;3.67;;;17.70;99.90;;;;;;5040010;28;20045;-39
2023/09/23 11:33:25;;;;;;;4.40;4.00;;;17.60;99.90;;;;;;5031799;28;20124;-39
2023/09/23 11:35:54;;;;;;;4.47;3.40;;;17.60;99.90;;;;;;5048565;28;20460;-39
2023/09/23 11:38:22;;;;;;;9.20;3.97;;;17.90;99.90;;;;;;5048400;28;20442;-39
2023/09/23 11:40:49;;;;;;;5.40;3.58;;;18.30;99.90;;;;;;5048404;28;20592;-42
2023/09/23 11:43:16;;;;;;;5.63;3.65;;;18.90;99.90;;;;;;5044401;28;20124;-39
2023/09/23 11:45:48;;;;;;;3.97;3.58;;;18.70;99.90;;;;;;5036657;28;20043;-43
2023/09/23 11:48:16;;;;;;;;;;;18.40;99.90;;;;;;5036982;28;20114;-42
2023/09/23 11:50:43;;;;;;;4.00;3.50;;;18.20;99.90;;;;;;5045306;28;19927;-40
2023/09/23 11:53:11;;;;;;;6.45;3.42;;;18.00;99.90;;;;;;5048466;28;20049;-39
2023/09/23 11:55:39;;;;;;;6.10;3.40;;;17.80;99.90;;;;;;5041874;28;20080;-39
2023/09/23 11:58:08;;;;;;;3.53;3.20;;;18.00;99.90;;;;;;5049023;28;20059;-39
2023/09/23 12:00:35;;;;;;;6.35;3.60;;;18.30;99.90;;;;;;5047921;28;20140;-41
2023/09/23 12:03:03;;;;;;;4.40;3.67;;;18.90;99.90;;;;;;5042438;28;20123;-41
2023/09/23 12:05:31;;;;;;;5.93;3.58;;;19.20;99.90;;;;;;5047498;28;20053;-42
2023/09/23 12:07:59;;;;;;;4.57;3.45;;;19.10;99.90;;;;;;5047432;28;20122;-41
2023/09/23 12:10:29;;;;;;;6.03;3.50;;;18.90;99.90;;;;;;5041234;28;20060;-43
2023/09/23 12:13:02;;;;;;;6.15;3.70;;;18.60;99.90;;;;;;5044917;28;20144;-40
2023/09/23 12:15:31;;;;;;;5.28;3.40;;;18.50;99.90;;;;;;5046435;28;20121;-42
2023/09/23 12:17:59;;;;;;;5.53;3.63;;;18.40;99.90;;;;;;5047249;28;20590;-43
2023/09/23 12:20:27;;;;;;;6.75;3.78;;;18.40;99.90;;;;;;5040288;28;20493;-40
2023/09/23 12:22:57;;;;;;;4.65;3.83;;;18.70;99.90;;;;;;5039999;28;20052;-43
2023/09/23 12:25:24;;;;;;;5.50;3.83;;;19.50;99.90;;;;;;5049772;28;20062;-41
2023/09/23 12:27:52;;;;;;;5.55;3.80;;;20.50;99.90;;;;;;5051264;28;20041;-40
2023/09/23 12:30:19;;;;;;;5.65;3.45;;;20.90;99.90;;;;;;5050099;28;20053;-40
2023/09/23 12:32:46;;;;;;;5.03;3.70;;;21.10;99.90;;;;;;5050657;28;20047;-40
2023/09/23 12:35:14;;;;;;;4.55;3.78;;;20.90;99.90;;;;;;5042861;28;20559;-42
2023/09/23 12:37:41;;;;;;;5.70;3.65;;;20.80;99.90;;;;;;5042435;28;20071;-42
2023/09/23 12:40:09;;;;;;;5.80;3.78;;;21.10;99.90;;;;;;5050167;28;21142;-41
2023/09/23 12:42:37;;;;;;;7.28;3.60;;;22.10;99.90;;;;;;5046164;28;20133;-41
2023/09/23 12:45:07;;;;;;;5.00;3.75;;;22.70;99.90;;;;;;5040648;28;20053;-40
2023/09/23 12:47:34;;;;;;;4.47;3.83;;;22.80;99.90;;;;;;5044926;28;20052;-38
2023/09/23 12:50:21;;;;;;;5.70;3.70;;;23.20;99.90;;;;;;5046724;28;20052;-39
2023/09/23 12:52:49;;;;;;;8.73;3.92;;;23.70;99.90;;;;;;5042090;28;20041;-42
2023/09/23 12:55:17;;;;;;;5.78;3.78;;;23.30;99.90;;;;;;5047887;28;20048;-40
2023/09/23 12:57:44;;;;;;;4.88;3.83;;;23.70;99.90;;;;;;5038368;28;20104;-39
2023/09/23 13:00:12;;;;;;;6.07;4.03;;;22.90;99.90;;;;;;5047630;28;20422;-41